createdAt,value
2019-04-27T00:01:33.998Z,60.20
2019-04-27T00:04:05.694Z,60.10
2019-04-27T00:06:43.077Z,60.20
2019-04-27T00:09:33.977Z,60.10
2019-04-27T00:12:16.506Z,60.40
2019-04-27T00:14:48.332Z,60.30
2019-04-27T00:17:44.991Z,60.30
2019-04-27T00:20:13.833Z,60.30
2019-04-27T00:22:46.953Z,60.30
2019-04-27T00:25:16.860Z,60.10
2019-04-27T00:27:46.787Z,60.20
2019-04-27T00:30:17.922Z,60.10
2019-04-27T00:32:48.049Z,60.10
2019-04-27T00:35:19.570Z,60.10
2019-04-27T00:37:57.175Z,60.80
2019-04-27T00:40:28.685Z,60.00
2019-04-27T00:42:58.653Z,59.90
2019-04-27T00:45:28.584Z,60.00
2019-04-27T00:47:59.833Z,59.90
2019-04-27T00:50:30.377Z,59.90
2019-04-27T00:53:00.370Z,60.00
2019-04-27T00:55:30.381Z,60.10
2019-04-27T00:58:03.949Z,60.20
2019-04-27T01:00:50.210Z,60.00
2019-04-27T01:03:39.565Z,60.00
2019-04-27T01:06:09.566Z,60.20
2019-04-27T01:08:39.514Z,60.20
2019-04-27T01:11:09.428Z,60.00
2019-04-27T01:13:39.334Z,60.20
2019-04-27T01:16:10.500Z,60.90
2019-04-27T01:18:41.166Z,60.20
2019-04-27T01:21:11.136Z,60.00
2019-04-27T01:23:40.983Z,60.10
2019-04-27T01:26:21.130Z,60.00
2019-04-27T01:28:59.224Z,60.90
2019-04-27T01:31:30.546Z,60.20
2019-04-27T01:34:00.415Z,60.00
2019-04-27T01:36:30.213Z,59.90
2019-04-27T01:39:00.018Z,59.80
2019-04-27T01:41:29.912Z,59.80
2019-04-27T01:43:59.796Z,59.90
2019-04-27T01:46:29.938Z,59.90
2019-04-27T01:48:59.805Z,59.80
2019-04-27T01:51:29.618Z,60.30
2019-04-27T01:53:59.496Z,59.90
2019-04-27T01:56:29.701Z,60.00
2019-04-27T01:58:59.659Z,60.10
2019-04-27T02:01:34.313Z,60.00
2019-04-27T02:04:11.776Z,60.20
2019-04-27T02:06:41.617Z,60.10
2019-04-27T02:09:12.765Z,60.10
2019-04-27T02:11:43.194Z,60.30
2019-04-27T02:14:13.551Z,60.10
2019-04-27T02:16:43.431Z,60.30
2019-04-27T02:19:13.365Z,60.20
2019-04-27T02:21:43.241Z,60.20
2019-04-27T02:24:13.042Z,60.20
2019-04-27T02:26:42.985Z,60.20
2019-04-27T02:29:24.482Z,60.00
2019-04-27T02:31:56.037Z,60.10
2019-04-27T02:34:30.261Z,60.20
2019-04-27T02:36:59.471Z,60.20
2019-04-27T02:39:30.814Z,60.20
2019-04-27T02:42:00.683Z,60.30
2019-04-27T02:44:32.189Z,60.50
2019-04-27T02:47:01.930Z,60.20
2019-04-27T02:49:31.792Z,60.00
2019-04-27T02:52:19.983Z,60.20
2019-04-27T02:54:50.577Z,60.90
2019-04-27T02:57:20.648Z,60.10
2019-04-27T02:59:51.610Z,60.10
2019-04-27T03:02:25.723Z,60.00
2019-04-27T03:04:55.522Z,60.10
2019-04-27T03:07:25.334Z,60.20
2019-04-27T03:09:55.194Z,60.00
2019-04-27T03:12:26.606Z,60.00
2019-04-27T03:15:12.910Z,59.90
2019-04-27T03:17:44.440Z,59.90
2019-04-27T03:20:20.202Z,59.70
2019-04-27T03:22:54.616Z,59.80
2019-04-27T03:25:26.141Z,60.00
2019-04-27T03:28:00.267Z,59.80
2019-04-27T03:30:31.828Z,59.80
2019-04-27T03:33:03.163Z,60.00
2019-04-27T03:35:36.471Z,59.90
2019-04-27T03:38:03.966Z,60.00
2019-04-27T03:40:33.831Z,60.00
2019-04-27T03:43:11.723Z,59.90
2019-04-27T03:45:41.790Z,60.00
2019-04-27T03:48:11.662Z,59.90
2019-04-27T03:50:43.173Z,60.00
2019-04-27T03:53:14.670Z,59.80
2019-04-27T03:55:50.129Z,59.90
2019-04-27T04:01:31.073Z,59.80
2019-04-27T04:04:00.951Z,59.60
2019-04-27T04:06:30.816Z,59.90
2019-04-27T04:09:00.721Z,59.60
2019-04-27T04:11:36.459Z,59.60
2019-04-27T04:14:16.799Z,59.60
2019-04-27T04:16:50.937Z,59.70
2019-04-27T04:19:20.781Z,59.50
2019-04-27T04:21:50.670Z,59.60
2019-04-27T04:24:20.887Z,59.40
2019-04-27T04:26:50.776Z,59.50
2019-04-27T04:29:20.692Z,59.40
2019-04-27T04:31:50.919Z,59.30
2019-04-27T04:34:20.845Z,59.40
2019-04-27T04:36:50.625Z,59.10
2019-04-27T04:39:20.587Z,59.20
2019-04-27T04:41:54.770Z,59.30
2019-04-27T04:44:26.207Z,59.20
2019-04-27T04:47:00.080Z,59.20
2019-04-27T04:49:29.704Z,59.30
2019-04-27T04:51:59.723Z,59.10
2019-04-27T04:54:30.168Z,59.30
2019-04-27T04:57:00.094Z,59.20
2019-04-27T04:59:29.894Z,59.70
2019-04-27T05:02:02.146Z,59.20
2019-04-27T05:04:31.721Z,59.20
2019-04-27T05:07:01.809Z,59.60
2019-04-27T05:09:34.111Z,59.20
2019-04-27T05:12:03.968Z,59.10
2019-04-27T05:14:33.902Z,59.10
2019-04-27T05:17:03.709Z,59.30
2019-04-27T05:19:33.620Z,59.30
2019-04-27T05:22:03.575Z,59.20
2019-04-27T05:24:33.393Z,59.30
2019-04-27T05:27:03.303Z,59.60
2019-04-27T05:29:33.097Z,59.60
2019-04-27T05:32:03.956Z,59.70
2019-04-27T05:34:35.456Z,59.60
2019-04-27T05:37:06.751Z,59.40
2019-04-27T05:39:38.731Z,59.60
2019-04-27T05:42:12.525Z,59.50
2019-04-27T05:44:56.431Z,59.40
2019-04-27T05:47:29.257Z,59.60
2019-04-27T05:50:01.802Z,59.30
2019-04-27T05:52:31.810Z,59.30
2019-04-27T05:55:01.755Z,59.40
2019-04-27T05:57:31.748Z,59.30
2019-04-27T06:00:02.495Z,59.10
2019-04-27T06:02:33.136Z,59.10
2019-04-27T06:05:03.273Z,58.90
2019-04-27T06:07:33.172Z,58.90
2019-04-27T06:10:03.001Z,59.10
2019-04-27T06:12:32.966Z,59.20
2019-04-27T06:15:02.838Z,59.10
2019-04-27T06:17:32.726Z,59.40
2019-04-27T06:20:02.571Z,59.70
2019-04-27T06:22:32.429Z,59.00
2019-04-27T06:25:02.375Z,58.80
2019-04-27T06:27:32.284Z,58.60
2019-04-27T06:30:04.809Z,58.10
2019-04-27T06:32:34.160Z,57.60
2019-04-27T06:35:05.826Z,56.70
2019-04-27T06:37:35.780Z,55.50
2019-04-27T06:40:09.753Z,54.10
2019-04-27T06:42:40.013Z,53.90
2019-04-27T06:45:10.137Z,53.60
2019-04-27T06:47:41.428Z,53.10
2019-04-27T06:50:12.372Z,53.10
2019-04-27T06:52:42.244Z,52.90
2019-04-27T06:55:12.073Z,53.00
2019-04-27T06:57:41.951Z,52.80
2019-04-27T07:00:12.822Z,53.10
2019-04-27T07:02:42.987Z,53.00
2019-04-27T07:05:12.779Z,53.10
2019-04-27T07:07:42.590Z,52.90
2019-04-27T07:10:12.689Z,52.80
2019-04-27T07:12:42.523Z,52.60
2019-04-27T07:15:15.382Z,52.50
2019-04-27T07:17:43.953Z,52.50
2019-04-27T07:20:13.812Z,52.40
2019-04-27T07:22:43.617Z,52.20
2019-04-27T07:25:13.424Z,52.10
2019-04-27T07:27:43.641Z,53.00
2019-04-27T07:30:13.513Z,51.80
2019-04-27T07:32:43.381Z,51.80
2019-04-27T07:35:13.366Z,52.10
2019-04-27T07:37:43.245Z,50.80
2019-04-27T07:40:13.113Z,50.30
2019-04-27T07:42:45.973Z,50.20
2019-04-27T07:45:19.547Z,49.80
2019-04-27T07:47:51.125Z,49.90
2019-04-27T07:50:20.931Z,49.30
2019-04-27T07:52:51.297Z,50.00
2019-04-27T07:55:21.069Z,49.80
2019-04-27T07:57:50.994Z,50.10
2019-04-27T08:00:20.911Z,50.40
2019-04-27T08:02:51.262Z,50.90
2019-04-27T08:05:21.113Z,51.50
2019-04-27T08:07:50.917Z,51.20
2019-04-27T08:10:20.800Z,51.10
2019-04-27T08:12:50.674Z,51.70
2019-04-27T08:15:20.565Z,51.50
2019-04-27T08:17:50.508Z,51.40
2019-04-27T08:20:21.234Z,51.30
2019-04-27T08:22:51.399Z,51.30
2019-04-27T08:25:22.854Z,51.60
2019-04-27T08:28:12.506Z,51.70
2019-04-27T08:30:46.819Z,51.80
2019-04-27T08:33:16.968Z,52.00
2019-04-27T08:35:46.879Z,51.90
2019-04-27T08:38:16.682Z,52.00
2019-04-27T08:40:46.482Z,51.90
2019-04-27T08:43:16.280Z,51.90
2019-04-27T08:45:46.197Z,51.80
2019-04-27T08:48:16.209Z,51.70
2019-04-27T08:50:46.034Z,51.60
2019-04-27T08:53:15.903Z,51.50
2019-04-27T08:55:45.715Z,51.50
2019-04-27T08:58:15.600Z,51.40
2019-04-27T09:00:45.391Z,51.50
2019-04-27T09:03:15.526Z,51.40
2019-04-27T09:05:45.392Z,51.30
2019-04-27T09:08:19.706Z,51.60
2019-04-27T09:10:54.286Z,51.20
2019-04-27T09:13:29.319Z,51.20
2019-04-27T09:16:00.945Z,51.10
2019-04-27T09:18:32.666Z,51.20
2019-04-27T09:21:04.264Z,51.10
2019-04-27T09:23:34.125Z,51.10
2019-04-27T09:26:03.970Z,51.10
2019-04-27T09:28:33.757Z,51.10
2019-04-27T09:31:03.716Z,51.10
2019-04-27T09:33:33.509Z,51.30
2019-04-27T09:36:03.310Z,51.30
2019-04-27T09:38:33.097Z,51.30
2019-04-27T09:41:02.897Z,51.40
2019-04-27T09:43:32.909Z,51.30
2019-04-27T09:46:03.098Z,51.30
2019-04-27T09:48:32.965Z,51.20
2019-04-27T09:51:02.862Z,51.10
2019-04-27T09:53:32.715Z,51.10
2019-04-27T09:56:02.995Z,50.90
2019-04-27T09:58:32.877Z,50.80
2019-04-27T10:01:02.747Z,50.80
2019-04-27T10:03:32.677Z,50.70
2019-04-27T10:06:02.525Z,50.80
2019-04-27T10:08:32.467Z,50.90
2019-04-27T10:11:02.383Z,50.80
2019-04-27T10:13:33.294Z,50.70
2019-04-27T10:16:03.105Z,50.80
2019-04-27T10:18:34.537Z,50.70
2019-04-27T10:21:06.229Z,50.60
2019-04-27T10:23:38.265Z,50.60
2019-04-27T10:26:07.622Z,50.40
2019-04-27T10:28:37.417Z,50.40
2019-04-27T10:31:07.297Z,50.30
2019-04-27T10:33:37.245Z,50.20
2019-04-27T10:36:07.049Z,50.30
2019-04-27T10:38:36.981Z,50.50
2019-04-27T10:41:07.739Z,50.60
2019-04-27T10:43:37.833Z,49.80
2019-04-27T10:46:07.744Z,50.50
2019-04-27T10:48:37.609Z,50.10
2019-04-27T10:51:07.474Z,49.90
2019-04-27T10:53:38.908Z,49.80
2019-04-27T10:56:08.734Z,49.70
2019-04-27T10:58:38.545Z,49.20
2019-04-27T11:01:09.474Z,46.50
2019-04-27T11:03:57.695Z,42.20
2019-04-27T11:06:29.128Z,41.60
2019-04-27T11:08:59.410Z,42.30
2019-04-27T11:11:32.389Z,41.30
2019-04-27T11:14:02.242Z,40.00
2019-04-27T11:16:32.272Z,41.60
2019-04-27T11:19:02.074Z,43.60
2019-04-27T11:21:31.882Z,43.70
2019-04-27T11:24:01.725Z,41.50
2019-04-27T11:26:31.645Z,38.30
2019-04-27T11:29:01.997Z,36.30
2019-04-27T11:31:31.848Z,38.00
2019-04-27T11:34:01.786Z,38.60
2019-04-27T11:36:33.289Z,39.20
2019-04-27T11:39:04.733Z,39.10
2019-04-27T11:41:36.199Z,39.30
2019-04-27T11:44:06.169Z,39.70
2019-04-27T11:46:36.426Z,39.80
2019-04-27T11:49:06.755Z,39.90
2019-04-27T11:51:36.691Z,39.50
2019-04-27T11:54:07.657Z,39.40
2019-04-27T11:56:37.531Z,39.80
2019-04-27T11:59:07.528Z,40.10
2019-04-27T12:01:37.373Z,40.30
2019-04-27T12:04:07.222Z,40.40
2019-04-27T12:06:37.169Z,40.30
2019-04-27T12:09:07.041Z,40.70
2019-04-27T12:11:38.293Z,41.30
2019-04-27T12:14:08.173Z,41.40
2019-04-27T12:16:37.965Z,41.60
2019-04-27T12:19:09.677Z,41.50
2019-04-27T12:21:39.593Z,41.60
2019-04-27T12:24:09.513Z,41.80
2019-04-27T12:26:41.099Z,41.90
2019-04-27T12:29:12.675Z,41.80
2019-04-27T12:31:48.397Z,42.00
2019-04-27T12:34:16.353Z,42.40
2019-04-27T12:36:46.286Z,42.50
2019-04-27T12:39:16.165Z,42.90
2019-04-27T12:41:46.240Z,42.80
2019-04-27T12:44:17.326Z,42.70
2019-04-27T12:46:47.573Z,42.80
2019-04-27T12:49:17.567Z,42.80
2019-04-27T12:51:47.514Z,43.30
2019-04-27T12:54:18.942Z,41.70
2019-04-27T12:57:06.977Z,39.40
2019-04-27T12:59:56.617Z,40.90
2019-04-27T13:02:34.557Z,41.00
2019-04-27T13:05:06.457Z,40.80
2019-04-27T13:07:39.133Z,40.30
2019-04-27T13:10:08.929Z,40.30
2019-04-27T13:12:39.082Z,40.30
2019-04-27T13:15:09.034Z,41.10
2019-04-27T13:17:38.911Z,40.20
2019-04-27T13:20:08.776Z,40.30
2019-04-27T13:22:38.790Z,40.70
2019-04-27T13:25:08.662Z,40.20
2019-04-27T13:27:38.533Z,40.00
2019-04-27T13:30:08.869Z,39.50
2019-04-27T13:32:39.066Z,39.60
2019-04-27T13:35:09.221Z,39.60
2019-04-27T13:37:40.831Z,40.80
2019-04-27T13:40:12.513Z,39.60
2019-04-27T13:42:59.222Z,39.70
2019-04-27T13:45:33.426Z,39.70
2019-04-27T13:51:16.632Z,39.90
2019-04-27T13:53:46.633Z,40.10
2019-04-27T13:56:17.363Z,40.20
2019-04-27T13:58:47.865Z,40.30
2019-04-27T14:01:17.664Z,40.50
2019-04-27T14:03:47.465Z,40.60
2019-04-27T14:06:17.722Z,40.60
2019-04-27T14:08:47.601Z,40.50
2019-04-27T14:11:18.401Z,40.50
2019-04-27T14:13:48.497Z,40.60
2019-04-27T14:16:18.958Z,40.50
2019-04-27T14:18:48.864Z,40.70
2019-04-27T14:21:18.713Z,41.30
2019-04-27T14:23:48.551Z,40.70
2019-04-27T14:26:18.526Z,40.60
2019-04-27T14:28:49.972Z,40.50
2019-04-27T14:31:21.042Z,40.60
2019-04-27T14:33:52.478Z,41.30
2019-04-27T14:36:22.398Z,40.60
2019-04-27T14:38:53.182Z,40.70
2019-04-27T14:41:23.037Z,40.70
2019-04-27T14:44:05.201Z,40.80
2019-04-27T14:46:24.239Z,40.80
2019-04-27T14:48:54.044Z,40.80
2019-04-27T14:51:23.841Z,41.00
2019-04-27T14:53:53.747Z,41.00
2019-04-27T14:56:24.991Z,41.00
2019-04-27T14:58:55.350Z,41.20
2019-04-27T15:01:25.213Z,41.30
2019-04-27T15:03:55.016Z,41.30
2019-04-27T15:06:25.537Z,41.40
2019-04-27T15:08:56.495Z,41.60
2019-04-27T15:11:26.369Z,41.40
2019-04-27T15:13:59.311Z,41.20
2019-04-27T15:16:28.337Z,41.40
2019-04-27T15:19:17.829Z,41.50
2019-04-27T15:21:56.472Z,41.40
2019-04-27T15:24:18.362Z,41.10
2019-04-27T15:26:50.147Z,41.00
2019-04-27T15:29:25.229Z,41.30
2019-04-27T15:31:55.946Z,41.20
2019-04-27T15:34:29.161Z,41.40
2019-04-27T15:37:10.426Z,41.10
2019-04-27T15:39:41.882Z,41.00
2019-04-27T15:42:19.260Z,41.40
2019-04-27T15:44:50.061Z,40.40
2019-04-27T15:47:21.186Z,40.30
2019-04-27T15:49:54.567Z,40.20
2019-04-27T15:52:25.497Z,40.10
2019-04-27T15:54:53.867Z,40.10
2019-04-27T15:57:23.674Z,40.10
2019-04-27T15:59:53.620Z,40.70
2019-04-27T16:02:23.502Z,40.60
2019-04-27T16:04:53.625Z,40.50
2019-04-27T16:07:24.824Z,40.40
2019-04-27T16:09:59.128Z,40.30
2019-04-27T16:12:28.476Z,40.30
2019-04-27T16:14:58.318Z,40.70
2019-04-27T16:17:31.643Z,41.30
2019-04-27T16:20:00.142Z,41.20
2019-04-27T16:22:29.938Z,41.30
2019-04-27T16:24:59.801Z,41.00
2019-04-27T16:27:34.186Z,41.10
2019-04-27T16:30:09.580Z,41.10
2019-04-27T16:32:34.072Z,41.20
2019-04-27T16:35:04.622Z,41.20
2019-04-27T16:37:42.061Z,41.50
2019-04-27T16:40:11.888Z,41.40
2019-04-27T16:42:45.233Z,41.40
2019-04-27T16:45:13.595Z,41.40
2019-04-27T16:47:43.445Z,41.50
2019-04-27T16:50:13.244Z,41.40
2019-04-27T16:52:43.046Z,41.40
2019-04-27T16:55:12.847Z,41.70
2019-04-27T16:57:42.637Z,41.50
2019-04-27T17:00:15.158Z,41.70
2019-04-27T17:02:45.554Z,42.00
2019-04-27T17:05:15.570Z,42.60
2019-04-27T17:07:45.895Z,42.10
2019-04-27T17:10:16.325Z,42.40
2019-04-27T17:12:51.055Z,42.60
2019-04-27T17:15:28.241Z,42.60
2019-04-27T17:18:15.866Z,42.60
2019-04-27T17:20:48.401Z,42.80
2019-04-27T17:23:31.286Z,43.10
2019-04-27T17:26:05.993Z,43.20
2019-04-27T17:28:41.029Z,43.40
2019-04-27T17:31:12.906Z,43.50
2019-04-27T17:33:48.684Z,43.60
2019-04-27T17:36:17.378Z,43.60
2019-04-27T17:38:50.958Z,43.80
2019-04-27T17:41:18.926Z,43.90
2019-04-27T17:43:48.806Z,43.90
2019-04-27T17:46:19.965Z,43.90
2019-04-27T17:48:50.204Z,43.90
2019-04-27T17:51:20.069Z,43.90
2019-04-27T17:53:50.144Z,44.10
2019-04-27T17:56:20.210Z,44.10
2019-04-27T17:58:52.382Z,44.10
2019-04-27T18:01:26.519Z,44.30
2019-04-27T18:04:00.140Z,45.00
2019-04-27T18:06:27.752Z,44.40
2019-04-27T18:09:00.846Z,44.80
2019-04-27T18:11:28.841Z,44.60
2019-04-27T18:14:00.309Z,44.50
2019-04-27T18:16:34.435Z,44.60
2019-04-27T18:19:11.854Z,44.70
2019-04-27T18:21:43.578Z,44.80
2019-04-27T18:24:15.031Z,44.80
2019-04-27T18:26:50.075Z,44.90
2019-04-27T18:29:18.540Z,44.90
2019-04-27T18:31:53.072Z,45.10
2019-04-27T18:34:21.533Z,45.00
2019-04-27T18:36:51.337Z,45.10
2019-04-27T18:39:21.134Z,45.20
2019-04-27T18:41:54.271Z,45.20
2019-04-27T18:44:23.831Z,45.30
2019-04-27T18:46:58.830Z,45.40
2019-04-27T18:49:34.285Z,45.40
2019-04-27T18:52:22.615Z,45.40
2019-04-27T18:54:52.481Z,45.50
2019-04-27T18:57:22.291Z,45.60
2019-04-27T18:59:52.157Z,45.60
2019-04-27T19:02:22.093Z,45.70
2019-04-27T19:04:51.970Z,45.70
2019-04-27T19:07:21.768Z,45.80
2019-04-27T19:09:51.587Z,45.80
2019-04-27T19:12:22.973Z,45.80
2019-04-27T19:14:52.864Z,46.00
2019-04-27T19:17:22.723Z,45.90
2019-04-27T19:19:54.343Z,46.00
2019-04-27T19:22:24.214Z,46.00
2019-04-27T19:24:54.252Z,46.10
2019-04-27T19:27:31.490Z,46.50
2019-04-27T19:30:03.078Z,46.10
2019-04-27T19:32:34.046Z,46.20
2019-04-27T19:35:05.288Z,46.20
2019-04-27T19:37:35.161Z,46.30
2019-04-27T19:40:08.611Z,46.30
2019-04-27T19:42:38.721Z,47.00
2019-04-27T19:45:08.774Z,46.40
2019-04-27T19:47:38.688Z,46.40
2019-04-27T19:50:10.297Z,46.40
2019-04-27T19:52:41.469Z,46.50
2019-04-27T19:55:11.453Z,46.40
2019-04-27T19:57:42.138Z,46.50
2019-04-27T20:00:29.709Z,46.60
2019-04-27T20:03:02.785Z,46.70
2019-04-27T20:05:33.847Z,46.60
2019-04-27T20:08:06.537Z,46.70
2019-04-27T20:10:37.765Z,46.80
2019-04-27T20:13:07.803Z,46.80
2019-04-27T20:15:37.838Z,46.70
2019-04-27T20:18:07.955Z,46.80
2019-04-27T20:20:39.030Z,46.80
2019-04-27T20:23:09.086Z,47.00
2019-04-27T20:25:39.115Z,47.00
2019-04-27T20:28:08.982Z,47.00
2019-04-27T20:30:38.849Z,47.00
2019-04-27T20:33:08.713Z,47.00
2019-04-27T20:35:38.595Z,47.00
2019-04-27T20:38:08.673Z,47.10
2019-04-27T20:40:38.611Z,47.10
2019-04-27T20:43:08.433Z,47.20
2019-04-27T20:45:38.310Z,47.20
2019-04-27T20:48:08.484Z,47.20
2019-04-27T20:50:38.290Z,47.30
2019-04-27T20:53:12.593Z,47.20
2019-04-27T20:55:42.569Z,47.20
2019-04-27T20:58:12.683Z,47.20
2019-04-27T21:00:42.993Z,47.30
2019-04-27T21:03:20.478Z,47.20
2019-04-27T21:05:54.890Z,47.30
2019-04-27T21:08:31.054Z,47.40
2019-04-27T21:11:01.633Z,47.30
2019-04-27T21:13:31.768Z,47.30
2019-04-27T21:16:02.268Z,47.30
2019-04-27T21:18:32.270Z,47.30
2019-04-27T21:21:02.098Z,47.30
2019-04-27T21:23:31.970Z,47.30
2019-04-27T21:26:02.274Z,47.40
2019-04-27T21:28:32.182Z,47.30
2019-04-27T21:31:02.008Z,47.40
2019-04-27T21:33:32.069Z,47.50
2019-04-27T21:36:01.875Z,47.40
2019-04-27T21:38:31.745Z,47.50
2019-04-27T21:41:01.623Z,47.50
2019-04-27T21:43:32.743Z,47.40
2019-04-27T21:46:02.820Z,47.50
2019-04-27T21:48:32.714Z,47.50
2019-04-27T21:51:02.586Z,47.50
2019-04-27T21:53:34.053Z,47.60
2019-04-27T21:56:05.577Z,47.50
2019-04-27T21:58:35.382Z,47.50
2019-04-27T22:01:13.243Z,47.50
2019-04-27T22:03:43.462Z,47.60
2019-04-27T22:06:13.401Z,47.60
2019-04-27T22:08:43.221Z,47.70
2019-04-27T22:11:13.022Z,47.60
2019-04-27T22:13:42.821Z,47.70
2019-04-27T22:16:13.119Z,47.70
2019-04-27T22:18:43.049Z,47.70
2019-04-27T22:21:12.865Z,47.60
2019-04-27T22:23:44.277Z,47.60
2019-04-27T22:26:14.105Z,47.70
2019-04-27T22:28:49.185Z,47.70
2019-04-27T22:31:15.394Z,47.70
2019-04-27T22:33:45.205Z,47.70
2019-04-27T22:36:15.975Z,47.70
2019-04-27T22:38:45.854Z,47.80
2019-04-27T22:41:17.368Z,47.80
2019-04-27T22:44:05.087Z,47.80
2019-04-27T22:46:45.353Z,47.80
2019-04-27T22:49:15.229Z,47.80
2019-04-27T22:51:45.098Z,47.80
2019-04-27T22:54:15.002Z,47.80
2019-04-27T22:56:46.526Z,47.80
2019-04-27T22:59:17.969Z,47.80
2019-04-27T23:01:52.382Z,47.70
2019-04-27T23:04:32.382Z,47.80
2019-04-27T23:07:02.755Z,47.80
2019-04-27T23:09:32.801Z,47.80
2019-04-27T23:12:02.755Z,47.80
2019-04-27T23:14:32.633Z,47.80
2019-04-27T23:17:13.024Z,47.80
2019-04-27T23:19:42.872Z,48.70
2019-04-27T23:22:12.946Z,47.90
2019-04-27T23:24:43.045Z,48.00
2019-04-27T23:27:15.140Z,47.90
2019-04-27T23:29:44.617Z,47.80
2019-04-27T23:32:18.942Z,47.90
2019-04-27T23:34:48.901Z,47.90
2019-04-27T23:37:18.707Z,47.90
2019-04-27T23:39:48.601Z,48.00
2019-04-27T23:42:18.714Z,48.00
2019-04-27T23:44:48.604Z,48.00
2019-04-27T23:47:18.442Z,48.00
2019-04-27T23:49:48.307Z,48.00
2019-04-27T23:52:22.837Z,48.00
2019-04-27T23:54:52.981Z,48.10
2019-04-27T23:57:23.077Z,48.00
2019-04-27T23:59:52.870Z,48.10
